Time;durP1;ratioP1;P1;durP2;ratioP2;P2;SDS_P1;SDS_P2;PMS_P1;PMS_P2;Temp;Humidity;BMP_temperature;BMP_pressure;BME280_temperature;BME280_humidity;BME280_pressure;Samples;Min_cycle;Max_cycle;Signal;HPM_P1;HPM_P2
2024/02/14 00:01:53;;;;;;;19.48;3.22;;;;;;;;;;5125780;27;20058;-76
2024/02/14 00:04:25;;;;;;;30.77;3.28;;;;;;;;;;5123683;27;20043;-76
2024/02/14 00:06:55;;;;;;;17.70;2.33;;;;;;;;;;5122847;27;20043;-76
2024/02/14 00:09:27;;;;;;;19.77;2.45;;;;;;;;;;5122370;27;20051;-76
2024/02/14 00:11:57;;;;;;;18.52;2.08;;;;;;;;;;5123256;27;20042;-76
2024/02/14 00:14:27;;;;;;;19.40;2.10;;;;;;;;;;5124858;27;20043;-76
2024/02/14 00:17:00;;;;;;;13.32;1.85;;;;;;;;;;5123512;27;20560;-76
2024/02/14 00:19:32;;;;;;;23.88;2.67;;;;;;;;;;5123527;27;20547;-76
2024/02/14 00:22:02;;;;;;;23.83;2.78;;;;;;;;;;5122742;27;20058;-77
2024/02/14 00:24:33;;;;;;;20.55;2.65;;;;;;;;;;5123090;27;20055;-76
2024/02/14 00:27:05;;;;;;;22.98;2.60;;;;;;;;;;5123801;27;20050;-76
2024/02/14 00:29:35;;;;;;;21.40;2.35;;;;;;;;;;5121669;27;20047;-77
2024/02/14 00:32:06;;;;;;;14.95;1.85;;;;;;;;;;5123576;27;20047;-76
2024/02/14 00:34:38;;;;;;;21.58;2.25;;;;;;;;;;5124454;27;20054;-77
2024/02/14 00:37:10;;;;;;;20.85;2.80;;;;;;;;;;5123690;27;20062;-75
2024/02/14 00:39:41;;;;;;;19.13;2.42;;;;;;;;;;5121740;27;20047;-76
2024/02/14 00:42:11;;;;;;;13.77;1.90;;;;;;;;;;5123831;27;20061;-76
2024/02/14 00:44:41;;;;;;;24.55;2.83;;;;;;;;;;5123107;27;20051;-77
2024/02/14 00:47:12;;;;;;;14.68;1.88;;;;;;;;;;5123113;27;20051;-77
2024/02/14 00:49:44;;;;;;;18.80;2.35;;;;;;;;;;5124377;28;20054;-75
2024/02/14 00:52:16;;;;;;;12.73;1.73;;;;;;;;;;5124416;27;20066;-77
2024/02/14 00:55:35;;;;;;;20.92;2.10;;;;;;;;;;5123397;28;20043;-77
2024/02/14 00:58:09;;;;;;;21.73;2.38;;;;;;;;;;5125280;27;20511;-77
2024/02/14 01:00:41;;;;;;;15.23;1.80;;;;;;;;;;5123325;27;20051;-76
2024/02/14 01:03:12;;;;;;;22.30;2.50;;;;;;;;;;5122421;28;20042;-76
2024/02/14 01:06:30;;;;;;;18.05;2.10;;;;;;;;;;5123537;27;20055;-76
2024/02/14 01:09:03;;;;;;;20.77;2.08;;;;;;;;;;5116697;27;20508;-76
2024/02/14 01:11:34;;;;;;;11.40;1.63;;;;;;;;;;5123295;27;20047;-76
2024/02/14 01:14:04;;;;;;;15.07;2.10;;;;;;;;;;5122611;27;20663;-77
2024/02/14 01:16:41;;;;;;;19.33;2.17;;;;;;;;;;5123006;28;20054;-76
2024/02/14 01:19:13;;;;;;;19.27;1.80;;;;;;;;;;5120117;28;20039;-76
2024/02/14 01:21:49;;;;;;;12.60;1.90;;;;;;;;;;5120459;28;20051;-76
2024/02/14 01:24:20;;;;;;;14.32;1.55;;;;;;;;;;5122004;28;20544;-76
2024/02/14 01:26:50;;;;;;;14.35;2.10;;;;;;;;;;5123978;27;20383;-76
2024/02/14 01:29:23;;;;;;;22.42;2.10;;;;;;;;;;5120815;27;20051;-76
2024/02/14 01:31:55;;;;;;;20.70;2.17;;;;;;;;;;5122091;27;20513;-76
2024/02/14 01:34:28;;;;;;;11.18;2.25;;;;;;;;;;5121795;27;20055;-77
2024/02/14 01:36:59;;;;;;;18.35;1.83;;;;;;;;;;5122465;27;20043;-75
2024/02/14 01:39:31;;;;;;;16.20;1.83;;;;;;;;;;5120224;28;20058;-76
2024/02/14 01:42:06;;;;;;;16.23;1.83;;;;;;;;;;5122341;27;20410;-77
2024/02/14 01:44:37;;;;;;;11.07;1.63;;;;;;;;;;5121280;27;20062;-77
2024/02/14 01:47:12;;;;;;;20.85;2.15;;;;;;;;;;5121020;28;20044;-77
2024/02/14 01:49:44;;;;;;;18.35;2.38;;;;;;;;;;5122022;27;20043;-77
2024/02/14 01:52:17;;;;;;;10.60;1.80;;;;;;;;;;5121766;27;20059;-76
2024/02/14 01:54:48;;;;;;;24.60;2.40;;;;;;;;;;5125860;27;20043;-76
2024/02/14 01:57:19;;;;;;;22.30;2.28;;;;;;;;;;5124014;27;20066;-77
2024/02/14 01:59:53;;;;;;;21.45;2.03;;;;;;;;;;5125924;27;20047;-76
2024/02/14 02:02:26;;;;;;;13.98;1.63;;;;;;;;;;5125945;27;20065;-78
2024/02/14 02:04:56;;;;;;;10.23;1.80;;;;;;;;;;5124497;27;20066;-76
2024/02/14 02:07:29;;;;;;;9.90;1.50;;;;;;;;;;5126047;27;20046;-77
2024/02/14 02:10:04;;;;;;;11.68;2.05;;;;;;;;;;5125912;27;20047;-75
2024/02/14 02:12:39;;;;;;;18.40;2.42;;;;;;;;;;5125836;27;20586;-76
2024/02/14 02:15:12;;;;;;;14.95;1.90;;;;;;;;;;5125103;27;20035;-76
2024/02/14 02:17:45;;;;;;;19.00;1.98;;;;;;;;;;5125757;27;21118;-77
2024/02/14 02:20:18;;;;;;;10.13;2.25;;;;;;;;;;5124732;27;20188;-77
2024/02/14 02:22:49;;;;;;;17.50;2.20;;;;;;;;;;5124717;27;20047;-77
2024/02/14 02:25:26;;;;;;;17.33;1.63;;;;;;;;;;5125182;27;20039;-75
2024/02/14 02:27:57;;;;;;;8.07;1.33;;;;;;;;;;5125161;27;20051;-77
2024/02/14 02:30:28;;;;;;;14.23;2.20;;;;;;;;;;5125641;27;20043;-76
2024/02/14 02:33:02;;;;;;;14.25;2.60;;;;;;;;;;5125802;27;20059;-77
2024/02/14 02:35:34;;;;;;;13.13;1.80;;;;;;;;;;5125799;27;20050;-76
2024/02/14 02:38:05;;;;;;;10.32;1.70;;;;;;;;;;5125669;27;20512;-76
2024/02/14 02:40:36;;;;;;;15.40;2.58;;;;;;;;;;5123098;27;20055;-76
2024/02/14 02:43:08;;;;;;;19.25;1.52;;;;;;;;;;5125574;27;20054;-75
2024/02/14 02:45:38;;;;;;;14.38;1.58;;;;;;;;;;5125732;27;20058;-77
2024/02/14 02:48:09;;;;;;;20.45;2.17;;;;;;;;;;5125750;27;20498;-76
2024/02/14 02:50:39;;;;;;;21.73;2.42;;;;;;;;;;5125112;27;20054;-76
2024/02/14 02:53:10;;;;;;;18.27;1.73;;;;;;;;;;5124967;27;20543;-76
2024/02/14 02:55:41;;;;;;;17.13;1.73;;;;;;;;;;5124611;27;20698;-77
2024/02/14 02:58:16;;;;;;;13.45;1.67;;;;;;;;;;5124736;27;20058;-76
2024/02/14 03:00:49;;;;;;;19.95;2.10;;;;;;;;;;5123955;27;20062;-75
2024/02/14 03:03:20;;;;;;;18.75;2.13;;;;;;;;;;5125227;27;20047;-76
2024/02/14 03:05:51;;;;;;;9.98;1.83;;;;;;;;;;5125191;27;20043;-77
2024/02/14 03:08:25;;;;;;;15.98;1.65;;;;;;;;;;5124989;27;20054;-76
2024/02/14 03:10:55;;;;;;;23.23;2.30;;;;;;;;;;5122996;27;20055;-76
2024/02/14 03:13:29;;;;;;;11.88;1.40;;;;;;;;;;5124369;27;20047;-77
2024/02/14 03:16:01;;;;;;;10.32;1.58;;;;;;;;;;5123269;27;20055;-78
2024/02/14 03:18:32;;;;;;;10.50;1.48;;;;;;;;;;5123633;27;20422;-77
2024/02/14 03:21:03;;;;;;;15.45;1.73;;;;;;;;;;5124154;27;20050;-76
2024/02/14 03:23:35;;;;;;;14.27;2.67;;;;;;;;;;5124286;27;20066;-76
2024/02/14 03:26:08;;;;;;;15.25;1.83;;;;;;;;;;5124095;27;20042;-76
2024/02/14 03:28:39;;;;;;;8.65;1.55;;;;;;;;;;5124681;27;20417;-77
2024/02/14 03:31:14;;;;;;;10.52;2.40;;;;;;;;;;5123265;27;20532;-77
2024/02/14 03:33:45;;;;;;;19.05;1.65;;;;;;;;;;5124119;27;20105;-76
2024/02/14 03:36:16;;;;;;;23.25;1.77;;;;;;;;;;5124074;27;20039;-76
2024/02/14 03:38:46;;;;;;;15.48;1.85;;;;;;;;;;5123744;27;20050;-76
2024/02/14 03:41:17;;;;;;;10.65;1.38;;;;;;;;;;5124011;27;20428;-77
2024/02/14 03:43:49;;;;;;;13.23;1.70;;;;;;;;;;5124128;27;20426;-78
2024/02/14 03:46:21;;;;;;;15.05;1.30;;;;;;;;;;5123851;27;20051;-77
2024/02/14 03:48:51;;;;;;;13.35;1.80;;;;;;;;;;5123151;27;20051;-76
2024/02/14 03:51:24;;;;;;;8.55;1.42;;;;;;;;;;5124263;27;20047;-77
2024/02/14 03:53:56;;;;;;;9.57;1.90;;;;;;;;;;5124755;27;20493;-78
2024/02/14 03:56:27;;;;;;;11.38;1.33;;;;;;;;;;5124749;27;20043;-76
2024/02/14 03:58:57;;;;;;;12.80;1.52;;;;;;;;;;5124029;27;20035;-77
2024/02/14 04:01:27;;;;;;;17.33;1.70;;;;;;;;;;5123827;27;20046;-77
2024/02/14 04:04:00;;;;;;;11.20;1.52;;;;;;;;;;5122748;27;20443;-76
2024/02/14 04:06:31;;;;;;;11.68;1.73;;;;;;;;;;5121801;27;20051;-76
2024/02/14 04:09:03;;;;;;;13.48;1.40;;;;;;;;;;5122183;27;20065;-76
2024/02/14 04:11:33;;;;;;;15.38;1.50;;;;;;;;;;5123979;27;20051;-76
2024/02/14 04:14:04;;;;;;;13.52;1.42;;;;;;;;;;5123329;27;20054;-78
2024/02/14 04:16:36;;;;;;;12.73;1.70;;;;;;;;;;5122967;27;20606;-77
2024/02/14 04:19:06;;;;;;;7.97;1.20;;;;;;;;;;5122562;27;20051;-76
2024/02/14 04:21:37;;;;;;;16.90;1.42;;;;;;;;;;5122297;27;20073;-77
2024/02/14 04:25:00;;;;;;;11.45;1.48;;;;;;;;;;5123949;27;20497;-75
2024/02/14 04:27:31;;;;;;;28.30;2.20;;;;;;;;;;5123810;27;20031;-77
2024/02/14 04:30:02;;;;;;;9.10;1.35;;;;;;;;;;5122674;27;20062;-77
2024/02/14 04:32:33;;;;;;;16.77;1.35;;;;;;;;;;5123085;27;20541;-76
2024/02/14 04:35:03;;;;;;;14.23;1.60;;;;;;;;;;5122059;27;20055;-75
2024/02/14 04:37:35;;;;;;;10.40;1.25;;;;;;;;;;5123203;27;20050;-75
2024/02/14 04:40:06;;;;;;;14.15;1.80;;;;;;;;;;5123148;27;20520;-75
2024/02/14 04:42:37;;;;;;;10.23;1.25;;;;;;;;;;5122358;27;20596;-75
2024/02/14 04:45:08;;;;;;;13.80;2.08;;;;;;;;;;5122113;27;20050;-77
2024/02/14 04:47:40;;;;;;;18.02;1.52;;;;;;;;;;5123249;27;20039;-77
2024/02/14 04:50:10;;;;;;;15.82;3.47;;;;;;;;;;5121688;28;20051;-76
2024/02/14 04:52:40;;;;;;;12.98;2.22;;;;;;;;;;5123135;27;20047;-76
2024/02/14 04:55:11;;;;;;;9.52;1.52;;;;;;;;;;5123037;28;20043;-77
2024/02/14 04:57:42;;;;;;;11.55;1.40;;;;;;;;;;5123368;28;20043;-76
2024/02/14 05:00:19;;;;;;;13.32;1.65;;;;;;;;;;5121628;28;20046;-75
2024/02/14 05:02:50;;;;;;;16.17;1.40;;;;;;;;;;5122810;28;20062;-77
2024/02/14 05:05:40;;;;;;;9.02;1.60;;;;;;;;;;5128264;27;20051;-75
2024/02/14 05:08:11;;;;;;;13.05;2.15;;;;;;;;;;5122836;28;20043;-77
2024/02/14 05:10:41;;;;;;;12.73;1.30;;;;;;;;;;5122621;28;20047;-77
2024/02/14 05:13:13;;;;;;;8.55;1.48;;;;;;;;;;5122859;27;20039;-76
2024/02/14 05:15:43;;;;;;;12.60;1.95;;;;;;;;;;5122304;28;20055;-77
2024/02/14 05:18:16;;;;;;;19.80;1.67;;;;;;;;;;5123248;28;20133;-77
2024/02/14 05:20:46;;;;;;;15.70;2.03;;;;;;;;;;5122784;28;20047;-77
2024/02/14 05:23:19;;;;;;;8.02;1.48;;;;;;;;;;5121629;27;20050;-76
2024/02/14 05:25:51;;;;;;;12.63;1.85;;;;;;;;;;5120920;28;20529;-77
2024/02/14 05:28:21;;;;;;;13.63;1.05;;;;;;;;;;5123353;27;20423;-76
2024/02/14 05:30:52;;;;;;;13.43;1.48;;;;;;;;;;5126633;27;20374;-76
2024/02/14 05:33:22;;;;;;;12.27;1.48;;;;;;;;;;5125468;27;20050;-77
2024/02/14 05:35:53;;;;;;;14.75;1.63;;;;;;;;;;5124712;27;20055;-77
2024/02/14 05:38:24;;;;;;;12.88;1.33;;;;;;;;;;5126595;27;20957;-76
2024/02/14 05:44:40;;;;;;;10.90;1.40;;;;;;;;;;5120165;27;20055;-77
2024/02/14 05:47:11;;;;;;;13.93;1.42;;;;;;;;;;5126258;27;20668;-77
2024/02/14 05:49:42;;;;;;;14.98;1.35;;;;;;;;;;5125977;27;20051;-77
2024/02/14 05:52:31;;;;;;;17.45;2.17;;;;;;;;;;5129138;27;20059;-75
2024/02/14 05:55:01;;;;;;;7.13;1.48;;;;;;;;;;5125904;27;20054;-75
2024/02/14 05:57:33;;;;;;;14.55;1.98;;;;;;;;;;5125871;27;20054;-77
2024/02/14 06:00:05;;;;;;;11.48;1.63;;;;;;;;;;5126300;27;20047;-77
2024/02/14 06:02:42;;;;;;;14.05;1.50;;;;;;;;;;5129275;27;20051;-77
2024/02/14 06:05:55;;;;;;;10.25;1.13;;;;;;;;;;5123738;27;20043;-76
2024/02/14 06:08:28;;;;;;;13.60;1.23;;;;;;;;;;5126431;27;21091;-75
2024/02/14 06:10:58;;;;;;;10.75;1.70;;;;;;;;;;5125463;27;20047;-75
2024/02/14 06:13:29;;;;;;;14.38;1.65;;;;;;;;;;5126369;27;20059;-77
2024/02/14 06:15:59;;;;;;;15.05;1.75;;;;;;;;;;5124389;27;20051;-76
2024/02/14 06:18:30;;;;;;;5.93;1.35;;;;;;;;;;5125825;27;20505;-77
2024/02/14 06:21:36;;;;;;;11.27;1.42;;;;;;;;;;5126283;27;20050;-77
2024/02/14 06:24:39;;;;;;;7.40;0.98;;;;;;;;;;5125760;27;20055;-77
2024/02/14 06:27:10;;;;;;;16.80;1.33;;;;;;;;;;5125458;27;20054;-77
2024/02/14 06:29:43;;;;;;;8.25;1.10;;;;;;;;;;5125414;27;20055;-76
2024/02/14 06:32:14;;;;;;;12.00;1.40;;;;;;;;;;5124903;27;20051;-77
2024/02/14 06:34:44;;;;;;;20.33;1.60;;;;;;;;;;5124820;27;20501;-77
2024/02/14 06:37:14;;;;;;;7.40;1.70;;;;;;;;;;5125422;27;20051;-77
2024/02/14 06:39:45;;;;;;;13.90;1.40;;;;;;;;;;5125317;27;20081;-75
2024/02/14 06:42:17;;;;;;;10.80;1.70;;;;;;;;;;5125291;27;20043;-77
2024/02/14 06:44:49;;;;;;;15.38;1.60;;;;;;;;;;5125432;27;20047;-77
2024/02/14 06:47:19;;;;;;;11.38;1.15;;;;;;;;;;5125097;27;20043;-76
2024/02/14 06:50:43;;;;;;;12.75;1.67;;;;;;;;;;5123869;27;20744;-77
2024/02/14 06:53:14;;;;;;;17.70;1.63;;;;;;;;;;5117105;27;20051;-76
2024/02/14 06:55:44;;;;;;;17.05;1.83;;;;;;;;;;5105818;27;20061;-75
2024/02/14 06:58:16;;;;;;;13.93;1.75;;;;;;;;;;5124762;27;20049;-75
2024/02/14 07:00:45;;;;;;;7.47;1.27;;;;;;;;;;5125105;27;20047;-77
2024/02/14 07:03:16;;;;;;;21.73;2.03;;;;;;;;;;5124678;27;20047;-76
2024/02/14 07:05:47;;;;;;;12.20;1.30;;;;;;;;;;5124887;27;20051;-77
2024/02/14 07:08:18;;;;;;;17.40;1.40;;;;;;;;;;5124598;27;20046;-77
2024/02/14 07:10:48;;;;;;;17.90;1.50;;;;;;;;;;5124646;27;20417;-77
2024/02/14 07:13:20;;;;;;;10.23;1.33;;;;;;;;;;5124665;27;20047;-77
2024/02/14 07:15:50;;;;;;;8.68;1.30;;;;;;;;;;5124531;27;20051;-76
2024/02/14 07:18:20;;;;;;;12.50;1.63;;;;;;;;;;5124757;27;20055;-76
2024/02/14 07:20:51;;;;;;;16.23;1.58;;;;;;;;;;5124730;27;20058;-76
2024/02/14 07:23:22;;;;;;;9.75;2.15;;;;;;;;;;5124564;27;20054;-77
2024/02/14 07:25:53;;;;;;;20.17;2.28;;;;;;;;;;5123879;27;20390;-75
2024/02/14 07:28:23;;;;;;;16.23;1.50;;;;;;;;;;5124188;27;20047;-77
2024/02/14 07:30:53;;;;;;;6.50;1.33;;;;;;;;;;5124819;27;20508;-77
2024/02/14 07:33:24;;;;;;;10.35;1.45;;;;;;;;;;5124427;27;20054;-77
2024/02/14 07:35:54;;;;;;;9.38;1.27;;;;;;;;;;5124224;27;20057;-78
2024/02/14 07:38:25;;;;;;;9.43;1.33;;;;;;;;;;5123671;27;20503;-77
2024/02/14 07:40:56;;;;;;;15.05;1.95;;;;;;;;;;5122626;27;20051;-76
2024/02/14 07:43:26;;;;;;;13.77;1.70;;;;;;;;;;5124296;27;20058;-77
2024/02/14 07:45:56;;;;;;;8.40;1.48;;;;;;;;;;5124091;27;20652;-78
2024/02/14 07:48:27;;;;;;;10.65;1.17;;;;;;;;;;5124205;27;20047;-77
2024/02/14 07:50:59;;;;;;;20.67;1.88;;;;;;;;;;5123156;27;20062;-77
2024/02/14 07:53:29;;;;;;;7.00;1.42;;;;;;;;;;5123399;27;20047;-75
2024/02/14 07:56:00;;;;;;;11.75;1.55;;;;;;;;;;5123739;27;20043;-76
2024/02/14 07:58:29;;;;;;;6.85;1.52;;;;;;;;;;5122250;27;20055;-77
2024/02/14 08:01:03;;;;;;;14.95;1.60;;;;;;;;;;5123759;27;20391;-76
2024/02/14 08:03:35;;;;;;;12.30;1.48;;;;;;;;;;5123406;27;20162;-76
2024/02/14 08:06:05;;;;;;;11.13;1.25;;;;;;;;;;5123669;27;20051;-77
2024/02/14 08:08:36;;;;;;;15.40;1.40;;;;;;;;;;5123580;27;20051;-77
2024/02/14 08:11:07;;;;;;;7.13;1.30;;;;;;;;;;5124671;27;20047;-78
2024/02/14 08:17:30;;;;;;;11.32;1.20;;;;;;;;;;5122431;27;20050;-76
2024/02/14 08:20:01;;;;;;;19.58;1.75;;;;;;;;;;5123989;27;20074;-77
2024/02/14 08:22:32;;;;;;;8.73;1.63;;;;;;;;;;5123482;27;20047;-78
2024/02/14 08:25:03;;;;;;;9.38;1.85;;;;;;;;;;5122683;27;20059;-76
2024/02/14 08:27:33;;;;;;;12.32;1.50;;;;;;;;;;5123273;27;20043;-75
2024/02/14 08:30:06;;;;;;;8.95;1.50;;;;;;;;;;5122316;27;20054;-77
2024/02/14 08:32:39;;;;;;;8.95;1.23;;;;;;;;;;5122734;27;20050;-76
2024/02/14 08:35:09;;;;;;;14.00;1.63;;;;;;;;;;5123002;27;20054;-76
2024/02/14 08:37:40;;;;;;;11.73;1.10;;;;;;;;;;5123828;27;20677;-77
2024/02/14 08:40:12;;;;;;;17.73;2.03;;;;;;;;;;5121830;27;20067;-78
2024/02/14 08:42:43;;;;;;;7.78;1.27;;;;;;;;;;5123354;27;20043;-78
2024/02/14 08:45:13;;;;;;;9.00;1.08;;;;;;;;;;5122890;27;20425;-77
2024/02/14 08:47:46;;;;;;;14.77;1.40;;;;;;;;;;5122739;27;20051;-75
2024/02/14 08:50:17;;;;;;;8.10;1.35;;;;;;;;;;5123119;27;20050;-76
2024/02/14 08:52:48;;;;;;;5.80;1.42;;;;;;;;;;5124008;27;20035;-77
2024/02/14 08:55:18;;;;;;;8.80;1.30;;;;;;;;;;5122886;27;20047;-77
2024/02/14 08:57:48;;;;;;;14.25;1.30;;;;;;;;;;5122902;28;21122;-77
2024/02/14 09:00:22;;;;;;;12.75;1.30;;;;;;;;;;5122716;28;20514;-75
2024/02/14 09:02:53;;;;;;;9.57;1.25;;;;;;;;;;5125070;27;20047;-78
2024/02/14 09:05:24;;;;;;;7.97;0.82;;;;;;;;;;5127330;27;20524;-77
2024/02/14 09:07:54;;;;;;;8.43;1.17;;;;;;;;;;5127261;27;20051;-78
2024/02/14 09:10:25;;;;;;;11.98;1.70;;;;;;;;;;5127568;27;20044;-78
2024/02/14 09:12:56;;;;;;;12.30;1.67;;;;;;;;;;5125595;27;20059;-77
2024/02/14 09:15:26;;;;;;;11.27;1.30;;;;;;;;;;5127027;27;20489;-77
2024/02/14 09:17:57;;;;;;;11.63;1.52;;;;;;;;;;5127160;27;20043;-78
2024/02/14 09:20:28;;;;;;;7.57;1.35;;;;;;;;;;5126149;27;20051;-78
2024/02/14 09:22:59;;;;;;;8.70;1.30;;;;;;;;;;5127598;27;20047;-76
2024/02/14 09:25:30;;;;;;;10.85;1.20;;;;;;;;;;5126317;27;20522;-80
2024/02/14 09:28:00;;;;;;;11.60;1.35;;;;;;;;;;5127127;27;20508;-76
2024/02/14 09:30:30;;;;;;;11.98;1.83;;;;;;;;;;5126011;27;20528;-78
2024/02/14 09:33:08;;;;;;;6.78;1.10;;;;;;;;;;5125216;27;20055;-76
2024/02/14 09:35:44;;;;;;;15.60;1.88;;;;;;;;;;5126624;27;20054;-78
2024/02/14 09:38:14;;;;;;;11.00;1.63;;;;;;;;;;5125971;27;20047;-79
2024/02/14 09:40:44;;;;;;;8.60;1.70;;;;;;;;;;5126734;27;20073;-78
2024/02/14 09:43:41;;;;;;;8.05;1.50;;;;;;;;;;5126831;27;20050;-77
2024/02/14 09:46:16;;;;;;;10.52;1.50;;;;;;;;;;5126432;27;20047;-76
2024/02/14 09:48:48;;;;;;;7.95;1.20;;;;;;;;;;5127004;27;20047;-77
2024/02/14 09:51:18;;;;;;;12.77;1.45;;;;;;;;;;5125425;27;20047;-78
2024/02/14 09:53:50;;;;;;;8.23;1.30;;;;;;;;;;5125870;27;20065;-76
2024/02/14 09:56:23;;;;;;;10.57;1.80;;;;;;;;;;5125140;27;20051;-78
2024/02/14 09:58:57;;;;;;;11.85;1.20;;;;;;;;;;5126093;27;20043;-78
2024/02/14 10:01:28;;;;;;;8.63;1.63;;;;;;;;;;5125176;27;20501;-78
2024/02/14 10:03:57;;;;;;;7.72;1.35;;;;;;;;;;5125430;27;20634;-78
2024/02/14 10:06:31;;;;;;;6.55;1.17;;;;;;;;;;5124960;27;20043;-78
2024/02/14 10:09:02;;;;;;;10.98;1.50;;;;;;;;;;5125570;27;20051;-78
2024/02/14 10:11:33;;;;;;;12.65;2.42;;;;;;;;;;5125774;27;20047;-80
2024/02/14 10:14:09;;;;;;;12.60;1.83;;;;;;;;;;5125393;27;20050;-77
2024/02/14 10:17:05;;;;;;;;;;;;;;;;;;5124784;27;20047;-76
2024/02/14 10:19:58;;;;;;;8.48;1.20;;;;;;;;;;5124969;27;19942;-77
2024/02/14 10:22:36;;;;;;;7.80;1.38;;;;;;;;;;5125333;27;20603;-76
2024/02/14 10:25:09;;;;;;;15.73;1.75;;;;;;;;;;5125019;27;20047;-79
2024/02/14 10:27:41;;;;;;;13.40;1.75;;;;;;;;;;5124610;27;20540;-76
2024/02/14 10:34:11;;;;;;;14.38;1.60;;;;;;;;;;5127040;27;20047;-79
2024/02/14 10:36:44;;;;;;;10.18;1.65;;;;;;;;;;5124912;27;20042;-76
2024/02/14 10:39:17;;;;;;;23.42;2.03;;;;;;;;;;5124471;27;20645;-78
2024/02/14 10:41:50;;;;;;;13.73;1.60;;;;;;;;;;5125403;27;20520;-77
2024/02/14 10:44:20;;;;;;;8.90;1.40;;;;;;;;;;5125293;27;20055;-77
2024/02/14 10:46:56;;;;;;;17.77;2.05;;;;;;;;;;5123947;27;20559;-78
2024/02/14 10:49:29;;;;;;;11.85;1.40;;;;;;;;;;5125012;27;20417;-78
2024/02/14 10:52:06;;;;;;;6.20;1.20;;;;;;;;;;5125038;27;20039;-78
2024/02/14 10:54:38;;;;;;;9.35;1.52;;;;;;;;;;5124833;27;20070;-78
2024/02/14 10:57:12;;;;;;;10.10;1.88;;;;;;;;;;5124076;27;20063;-80
2024/02/14 10:59:46;;;;;;;21.90;1.98;;;;;;;;;;5125435;27;20043;-79
2024/02/14 11:02:18;;;;;;;14.80;1.80;;;;;;;;;;5126025;27;20098;-78
2024/02/14 11:04:54;;;;;;;15.18;1.50;;;;;;;;;;5126771;27;20413;-77
2024/02/14 11:07:31;;;;;;;15.82;1.80;;;;;;;;;;5125566;27;20058;-79
2024/02/14 11:10:09;;;;;;;12.10;1.42;;;;;;;;;;5124096;27;20058;-77
2024/02/14 11:13:15;;;;;;;6.35;1.60;;;;;;;;;;5123977;27;20051;-78
2024/02/14 11:15:49;;;;;;;9.10;1.42;;;;;;;;;;5125021;27;20512;-75
2024/02/14 11:18:26;;;;;;;11.82;2.17;;;;;;;;;;5124387;27;20059;-77
2024/02/14 11:20:57;;;;;;;12.80;1.42;;;;;;;;;;5124891;27;20058;-77
2024/02/14 11:23:31;;;;;;;10.85;1.45;;;;;;;;;;5123899;27;20424;-78
2024/02/14 11:26:08;;;;;;;6.55;1.40;;;;;;;;;;5122908;27;20051;-83
2024/02/14 11:28:39;;;;;;;15.00;2.05;;;;;;;;;;5123728;27;20059;-78
2024/02/14 11:31:10;;;;;;;12.00;1.52;;;;;;;;;;5120931;27;20059;-82
2024/02/14 11:33:41;;;;;;;15.57;1.77;;;;;;;;;;5122616;27;20634;-77
2024/02/14 11:36:15;;;;;;;11.10;1.73;;;;;;;;;;5122318;27;20062;-79
2024/02/14 11:38:47;;;;;;;8.40;1.58;;;;;;;;;;5123633;27;20074;-79
2024/02/14 11:41:19;;;;;;;13.07;1.80;;;;;;;;;;5123761;27;20059;-78
2024/02/14 11:43:53;;;;;;;9.50;1.42;;;;;;;;;;5124153;27;20073;-79
2024/02/14 11:46:23;;;;;;;15.70;1.65;;;;;;;;;;5123978;27;20047;-79
2024/02/14 11:48:54;;;;;;;11.48;2.15;;;;;;;;;;5123828;27;20055;-76
2024/02/14 11:51:25;;;;;;;8.32;1.50;;;;;;;;;;5122661;27;20078;-79
2024/02/14 11:53:55;;;;;;;13.27;1.67;;;;;;;;;;5123242;27;20061;-78
2024/02/14 11:56:28;;;;;;;9.25;1.23;;;;;;;;;;5123294;27;20055;-80
2024/02/14 11:58:59;;;;;;;13.30;1.17;;;;;;;;;;5123218;27;20051;-76
2024/02/14 12:01:37;;;;;;;10.63;1.45;;;;;;;;;;5122471;27;20103;-80
2024/02/14 12:04:10;;;;;;;13.85;1.95;;;;;;;;;;5122210;27;20058;-78
2024/02/14 12:06:43;;;;;;;12.80;1.40;;;;;;;;;;5122838;27;20062;-76
2024/02/14 12:09:15;;;;;;;13.38;1.60;;;;;;;;;;5123675;27;20055;-78
2024/02/14 12:11:47;;;;;;;9.98;1.23;;;;;;;;;;5123494;27;20050;-77
2024/02/14 12:14:18;;;;;;;9.98;1.52;;;;;;;;;;5122750;27;20050;-75
2024/02/14 12:16:49;;;;;;;6.13;1.35;;;;;;;;;;5122744;27;20055;-81
2024/02/14 12:19:21;;;;;;;9.40;1.75;;;;;;;;;;5123565;27;20051;-76
2024/02/14 12:21:51;;;;;;;12.13;1.83;;;;;;;;;;5123359;27;20426;-77
2024/02/14 12:24:31;;;;;;;10.38;1.33;;;;;;;;;;5122718;27;20066;-76
2024/02/14 12:27:02;;;;;;;8.75;1.42;;;;;;;;;;5122862;27;20058;-79
2024/02/14 12:29:35;;;;;;;8.00;1.33;;;;;;;;;;5122662;27;20055;-77
2024/02/14 12:32:08;;;;;;;7.38;1.10;;;;;;;;;;5122610;27;20058;-78
2024/02/14 12:34:39;;;;;;;11.15;1.02;;;;;;;;;;5122894;27;20421;-79
2024/02/14 12:37:11;;;;;;;12.60;1.42;;;;;;;;;;5122330;27;20509;-76
2024/02/14 12:39:40;;;;;;;8.07;1.50;;;;;;;;;;5122956;27;20043;-78
2024/02/14 12:42:12;;;;;;;14.77;1.73;;;;;;;;;;5122607;27;20055;-77
2024/02/14 12:45:20;;;;;;;8.32;1.23;;;;;;;;;;5123217;27;20132;-80
2024/02/14 12:47:50;;;;;;;4.68;0.82;;;;;;;;;;5122068;27;20058;-76
2024/02/14 12:50:21;;;;;;;10.05;1.90;;;;;;;;;;5122286;27;20051;-77
2024/02/14 12:52:53;;;;;;;10.35;1.48;;;;;;;;;;5121874;27;20051;-77
2024/02/14 12:55:25;;;;;;;9.82;1.02;;;;;;;;;;5121412;28;20425;-77
2024/02/14 12:57:58;;;;;;;;;;;;;;;;;;5123636;27;20134;-79
2024/02/14 13:00:31;;;;;;;9.50;1.40;;;;;;;;;;5122296;27;19928;-76
2024/02/14 13:03:02;;;;;;;6.28;1.00;;;;;;;;;;5124298;27;20058;-82
2024/02/14 13:05:34;;;;;;;8.15;1.13;;;;;;;;;;5121725;27;20054;-78
2024/02/14 13:08:06;;;;;;;12.57;1.50;;;;;;;;;;5121887;27;20054;-77
2024/02/14 13:10:36;;;;;;;8.75;1.70;;;;;;;;;;5122551;27;20047;-78
2024/02/14 13:13:07;;;;;;;4.60;1.55;;;;;;;;;;5122842;27;20054;-78
2024/02/14 13:15:37;;;;;;;4.38;1.00;;;;;;;;;;5121381;27;20536;-77
2024/02/14 13:25:46;;;;;;;9.25;1.40;;;;;;;;;;5122624;28;20667;-76
2024/02/14 13:28:18;;;;;;;7.10;1.20;;;;;;;;;;5122935;27;20043;-76
2024/02/14 13:30:48;;;;;;;14.18;2.50;;;;;;;;;;5122622;28;20047;-76
2024/02/14 13:33:20;;;;;;;10.73;1.58;;;;;;;;;;5122616;27;20036;-75
2024/02/14 13:35:53;;;;;;;7.85;1.13;;;;;;;;;;5120842;27;20051;-77
2024/02/14 13:38:23;;;;;;;11.13;2.10;;;;;;;;;;5121830;27;20062;-76
2024/02/14 13:40:54;;;;;;;10.63;1.25;;;;;;;;;;5122204;27;20051;-76
2024/02/14 13:43:25;;;;;;;8.68;1.20;;;;;;;;;;5122966;27;20047;-78
2024/02/14 13:45:56;;;;;;;6.63;1.20;;;;;;;;;;5121392;27;20058;-76
2024/02/14 13:48:27;;;;;;;9.18;1.58;;;;;;;;;;5122353;27;20604;-76
2024/02/14 13:50:58;;;;;;;10.32;1.60;;;;;;;;;;5107740;27;20066;-76
2024/02/14 13:53:28;;;;;;;13.98;1.35;;;;;;;;;;5105209;28;20460;-81
2024/02/14 13:56:00;;;;;;;8.05;1.20;;;;;;;;;;5107500;27;20058;-76
2024/02/14 13:58:31;;;;;;;11.25;1.75;;;;;;;;;;5106250;28;20383;-76
2024/02/14 14:01:01;;;;;;;10.07;1.30;;;;;;;;;;5104287;28;20070;-76
2024/02/14 14:03:32;;;;;;;10.95;1.65;;;;;;;;;;5104727;28;20121;-78
2024/02/14 14:06:05;;;;;;;8.80;1.77;;;;;;;;;;5105090;28;20073;-75
2024/02/14 14:08:36;;;;;;;9.77;2.00;;;;;;;;;;5104935;28;20399;-81
2024/02/14 14:11:08;;;;;;;7.65;1.20;;;;;;;;;;5104298;28;20054;-76
2024/02/14 14:13:38;;;;;;;10.73;1.25;;;;;;;;;;5104568;28;20514;-77
2024/02/14 14:16:11;;;;;;;11.65;1.85;;;;;;;;;;5104511;28;20051;-76
2024/02/14 14:18:41;;;;;;;9.77;1.75;;;;;;;;;;5103981;28;20497;-75
2024/02/14 14:22:05;;;;;;;11.25;1.75;;;;;;;;;;5103712;28;20078;-76
2024/02/14 14:24:36;;;;;;;11.73;1.60;;;;;;;;;;5095436;28;20063;-77
2024/02/14 14:27:14;;;;;;;12.02;1.85;;;;;;;;;;5105015;28;20129;-75
2024/02/14 14:29:45;;;;;;;16.25;1.63;;;;;;;;;;5105285;28;20052;-75
2024/02/14 14:32:17;;;;;;;10.10;1.27;;;;;;;;;;5104317;28;20082;-76
2024/02/14 14:34:48;;;;;;;7.65;1.30;;;;;;;;;;5101952;28;20070;-77
2024/02/14 14:37:19;;;;;;;33.72;2.45;;;;;;;;;;5104154;28;20059;-76
2024/02/14 14:39:50;;;;;;;6.88;1.13;;;;;;;;;;5104724;28;20063;-76
2024/02/14 14:42:20;;;;;;;10.23;1.45;;;;;;;;;;5104273;28;20532;-77
2024/02/14 14:44:51;;;;;;;17.70;1.65;;;;;;;;;;5104097;28;20058;-76
2024/02/14 14:47:22;;;;;;;16.08;1.60;;;;;;;;;;5103902;28;20066;-76
2024/02/14 14:49:57;;;;;;;9.50;1.45;;;;;;;;;;5104179;28;20039;-81
2024/02/14 14:52:27;;;;;;;13.57;1.83;;;;;;;;;;5103962;28;20047;-77
2024/02/14 14:54:57;;;;;;;7.07;1.92;;;;;;;;;;5103712;28;20071;-77
2024/02/14 14:57:28;;;;;;;13.82;1.48;;;;;;;;;;5104089;27;20055;-77
2024/02/14 14:59:58;;;;;;;7.80;1.30;;;;;;;;;;5103881;28;20417;-77
2024/02/14 15:02:29;;;;;;;8.45;1.33;;;;;;;;;;5103753;28;20405;-75
2024/02/14 15:04:59;;;;;;;5.72;1.27;;;;;;;;;;5104296;28;20043;-75
2024/02/14 15:07:30;;;;;;;7.97;1.50;;;;;;;;;;5103545;28;20537;-78
2024/02/14 15:10:00;;;;;;;7.90;1.20;;;;;;;;;;5104116;28;20662;-76
2024/02/14 15:12:31;;;;;;;5.57;1.23;;;;;;;;;;5103337;28;20548;-76
2024/02/14 15:15:02;;;;;;;10.43;1.50;;;;;;;;;;5104106;28;20043;-78
2024/02/14 15:17:34;;;;;;;5.80;1.13;;;;;;;;;;5104198;28;20524;-76
2024/02/14 15:20:07;;;;;;;14.75;1.52;;;;;;;;;;5102887;28;20437;-75
2024/02/14 15:22:38;;;;;;;6.57;1.10;;;;;;;;;;5103488;28;20048;-76
2024/02/14 15:28:40;;;;;;;8.85;1.45;;;;;;;;;;5088419;28;20055;-77
2024/02/14 15:34:00;;;;;;;6.85;1.50;;;;;;;;;;5103533;28;20048;-77